createdAt,value
2019-03-08T00:00:47.980Z,1.57
2019-03-08T00:03:20.011Z,1.30
2019-03-08T00:05:50.215Z,1.23
2019-03-08T00:08:21.572Z,1.27
2019-03-08T00:10:51.874Z,1.40
2019-03-08T00:13:22.287Z,1.50
2019-03-08T00:15:52.457Z,1.20
2019-03-08T00:18:22.867Z,1.23
2019-03-08T00:20:53.084Z,1.53
2019-03-08T00:23:23.319Z,1.30
2019-03-08T00:25:53.759Z,1.67
2019-03-08T00:28:23.955Z,1.60
2019-03-08T00:30:54.155Z,1.77
2019-03-08T00:33:24.562Z,1.37
2019-03-08T00:35:54.808Z,1.07
2019-03-08T00:38:25.116Z,1.37
2019-03-08T00:40:56.363Z,1.50
2019-03-08T00:43:26.616Z,1.70
2019-03-08T00:45:57.252Z,1.40
2019-03-08T00:48:27.579Z,1.40
2019-03-08T00:50:57.804Z,1.60
2019-03-08T00:53:28.035Z,1.50
2019-03-08T00:55:58.401Z,1.60
2019-03-08T00:58:28.593Z,1.57
2019-03-08T01:00:59.964Z,1.30
2019-03-08T01:03:32.078Z,1.40
2019-03-08T01:06:02.442Z,1.40
2019-03-08T01:08:32.756Z,1.17
2019-03-08T01:11:03.056Z,1.30
2019-03-08T01:13:33.550Z,1.10
2019-03-08T01:16:03.828Z,1.10
2019-03-08T01:18:34.095Z,1.10
2019-03-08T01:21:04.262Z,1.20
2019-03-08T01:23:34.601Z,1.00
2019-03-08T01:26:05.109Z,1.30
2019-03-08T01:28:36.707Z,1.40
2019-03-08T01:31:07.125Z,0.97
2019-03-08T01:33:37.318Z,1.10
2019-03-08T01:36:07.536Z,1.00
2019-03-08T01:38:37.839Z,1.30
2019-03-08T01:41:08.111Z,0.90
2019-03-08T01:43:38.447Z,1.00
2019-03-08T01:46:08.777Z,1.20
2019-03-08T01:48:38.990Z,1.50
2019-03-08T01:51:09.207Z,1.30
2019-03-08T01:53:39.681Z,1.17
2019-03-08T01:56:10.143Z,1.00
2019-03-08T01:58:41.429Z,1.00
2019-03-08T02:01:12.016Z,1.10
2019-03-08T02:03:42.310Z,1.10
2019-03-08T02:06:12.492Z,1.40
2019-03-08T02:08:44.592Z,1.23
2019-03-08T02:11:14.792Z,1.17
2019-03-08T02:13:45.088Z,1.57
2019-03-08T02:16:15.410Z,1.20
2019-03-08T02:18:45.655Z,1.23
2019-03-08T02:21:15.880Z,1.73
2019-03-08T02:23:46.206Z,1.10
2019-03-08T02:26:16.431Z,1.00
2019-03-08T02:28:46.911Z,1.40
2019-03-08T02:31:17.138Z,1.30
2019-03-08T02:33:47.313Z,1.00
2019-03-08T02:36:17.566Z,1.67
2019-03-08T02:38:47.786Z,1.20
2019-03-08T02:41:18.016Z,1.00
2019-03-08T02:43:48.216Z,1.40
2019-03-08T02:46:18.488Z,1.20
2019-03-08T02:48:48.876Z,1.40
2019-03-08T02:51:19.069Z,1.50
2019-03-08T02:53:49.260Z,1.20
2019-03-08T02:56:19.556Z,1.53
2019-03-08T02:58:49.913Z,1.40
2019-03-08T03:01:20.628Z,1.00
2019-03-08T03:03:50.849Z,1.17
2019-03-08T03:06:21.242Z,1.30
2019-03-08T03:08:51.493Z,1.30
2019-03-08T03:11:21.723Z,1.37
2019-03-08T03:13:51.951Z,1.20
2019-03-08T03:16:22.138Z,1.30
2019-03-08T03:18:52.389Z,1.40
2019-03-08T03:21:22.919Z,1.30
2019-03-08T03:23:53.084Z,1.60
2019-03-08T03:26:23.628Z,1.30
2019-03-08T03:28:53.870Z,1.10
2019-03-08T03:31:24.269Z,1.20
2019-03-08T03:33:54.442Z,1.03
2019-03-08T03:36:24.944Z,1.10
2019-03-08T03:38:55.151Z,1.60
2019-03-08T03:41:25.429Z,1.00
2019-03-08T03:43:55.632Z,1.20
2019-03-08T03:46:25.870Z,1.30
2019-03-08T03:48:56.163Z,1.00
2019-03-08T03:51:26.386Z,1.20
2019-03-08T03:53:56.584Z,1.67
2019-03-08T03:56:26.850Z,1.33
2019-03-08T03:58:57.082Z,1.10
2019-03-08T04:01:31.225Z,1.23
2019-03-08T04:04:01.456Z,1.13
2019-03-08T04:06:31.680Z,1.30
2019-03-08T04:09:02.110Z,1.60
2019-03-08T04:11:34.010Z,1.23
2019-03-08T04:14:04.348Z,1.60
2019-03-08T04:16:34.564Z,1.60
2019-03-08T04:19:04.816Z,1.13
2019-03-08T04:21:35.128Z,1.20
2019-03-08T04:24:05.366Z,1.07
2019-03-08T04:26:36.815Z,1.30
2019-03-08T04:29:06.986Z,1.17
2019-03-08T04:31:38.557Z,1.40
2019-03-08T04:34:08.877Z,1.40
2019-03-08T04:36:39.082Z,1.27
2019-03-08T04:39:12.508Z,1.23
2019-03-08T04:41:42.863Z,1.20
2019-03-08T04:44:13.140Z,1.10
2019-03-08T04:46:43.367Z,1.20
2019-03-08T04:49:13.598Z,1.00
2019-03-08T04:51:44.788Z,0.97
2019-03-08T04:54:15.004Z,1.20
2019-03-08T04:56:45.272Z,1.07
2019-03-08T04:59:15.499Z,1.30
2019-03-08T05:01:46.135Z,1.23
2019-03-08T05:04:18.368Z,1.30
2019-03-08T05:06:48.554Z,1.10
2019-03-08T05:09:19.020Z,1.37
2019-03-08T05:11:49.338Z,1.03
2019-03-08T05:14:19.566Z,1.20
2019-03-08T05:16:49.788Z,1.13
2019-03-08T05:19:19.975Z,1.03
2019-03-08T05:21:52.770Z,1.50
2019-03-08T05:24:23.095Z,1.33
2019-03-08T05:26:53.373Z,1.23
2019-03-08T05:29:24.357Z,1.20
2019-03-08T05:31:54.842Z,1.03
2019-03-08T05:34:25.357Z,1.33
2019-03-08T05:36:55.609Z,1.00
2019-03-08T05:39:25.859Z,1.27
2019-03-08T05:41:56.100Z,1.20
2019-03-08T05:44:26.669Z,1.20
2019-03-08T05:46:57.185Z,0.93
2019-03-08T05:49:27.546Z,1.13
2019-03-08T05:51:57.742Z,1.40
2019-03-08T05:54:27.985Z,0.87
2019-03-08T05:56:58.265Z,1.60
2019-03-08T05:59:29.494Z,1.30
2019-03-08T06:01:59.888Z,1.60
2019-03-08T06:04:30.143Z,1.73
2019-03-08T06:07:00.326Z,1.70
2019-03-08T06:09:30.574Z,1.40
2019-03-08T06:12:00.822Z,1.63
2019-03-08T06:14:31.295Z,1.80
2019-03-08T06:17:01.527Z,1.17
2019-03-08T06:19:32.030Z,1.50
2019-03-08T06:22:02.290Z,1.10
2019-03-08T06:24:32.496Z,1.50
2019-03-08T06:27:02.735Z,1.20
2019-03-08T06:29:32.979Z,1.20
2019-03-08T06:32:04.360Z,1.57
2019-03-08T06:34:34.785Z,1.50
2019-03-08T06:37:05.101Z,1.40
2019-03-08T06:39:35.381Z,1.37
2019-03-08T06:42:05.831Z,1.70
2019-03-08T06:44:36.218Z,1.17
2019-03-08T06:47:06.511Z,1.20
2019-03-08T06:49:37.052Z,1.33
2019-03-08T06:52:07.936Z,1.10
2019-03-08T06:54:39.034Z,1.30
2019-03-08T06:57:09.350Z,1.40
2019-03-08T06:59:53.355Z,1.53
2019-03-08T07:02:24.433Z,1.80
2019-03-08T07:04:54.799Z,1.13
2019-03-08T07:07:25.197Z,1.53
2019-03-08T07:09:55.414Z,1.20
2019-03-08T07:12:52.733Z,1.27
2019-03-08T07:16:13.368Z,1.10
2019-03-08T07:18:47.625Z,1.33
2019-03-08T07:21:52.271Z,1.47
2019-03-08T07:24:54.295Z,1.47
2019-03-08T07:27:36.274Z,1.80
2019-03-08T07:30:32.398Z,1.50
2019-03-08T07:33:34.516Z,1.50
2019-03-08T07:36:35.418Z,1.07
2019-03-08T07:39:21.789Z,1.20
2019-03-08T07:42:07.700Z,1.30
2019-03-08T07:44:57.424Z,1.40
2019-03-08T07:51:22.682Z,1.20
2019-03-08T07:54:03.064Z,1.40
2019-03-08T07:56:43.537Z,1.00
2019-03-08T07:59:23.998Z,1.23
2019-03-08T08:02:18.323Z,1.50
2019-03-08T08:05:03.642Z,1.13
2019-03-08T08:07:49.663Z,1.40
2019-03-08T08:10:29.141Z,1.07
2019-03-08T08:13:22.644Z,1.27
2019-03-08T08:16:35.541Z,1.10
2019-03-08T08:20:03.840Z,1.10
2019-03-08T08:23:17.927Z,1.00
2019-03-08T08:26:14.169Z,1.40
2019-03-08T08:29:48.553Z,1.10
2019-03-08T08:32:50.002Z,1.10
2019-03-08T08:35:47.239Z,1.10
2019-03-08T08:39:10.148Z,1.30
2019-03-08T08:42:00.156Z,1.20
2019-03-08T08:44:50.538Z,1.07
2019-03-08T08:47:39.835Z,1.53
2019-03-08T08:50:25.696Z,1.10
2019-03-08T08:53:05.512Z,1.20
2019-03-08T08:55:57.948Z,1.20
2019-03-08T08:58:52.235Z,1.40
2019-03-08T09:01:40.186Z,1.10
2019-03-08T09:04:47.386Z,1.40
2019-03-08T09:07:45.947Z,1.33
2019-03-08T09:10:48.890Z,1.50
2019-03-08T09:13:56.631Z,1.80
2019-03-08T09:16:36.382Z,1.43
2019-03-08T09:19:16.825Z,3.30
2019-03-08T09:22:21.326Z,1.60
2019-03-08T09:25:16.330Z,1.10
2019-03-08T09:27:54.330Z,1.47
2019-03-08T09:30:45.083Z,1.30
2019-03-08T09:33:43.445Z,0.97
2019-03-08T09:36:35.648Z,1.33
2019-03-08T09:39:23.747Z,1.33
2019-03-08T09:42:03.337Z,1.73
2019-03-08T09:44:50.023Z,2.00
2019-03-08T09:47:27.845Z,2.00
2019-03-08T09:50:14.382Z,1.23
2019-03-08T09:52:51.183Z,1.43
2019-03-08T09:55:29.442Z,1.33
2019-03-08T09:58:20.038Z,1.40
2019-03-08T10:01:22.270Z,1.60
2019-03-08T10:04:10.336Z,1.40
2019-03-08T10:06:55.989Z,1.43
2019-03-08T10:09:41.713Z,1.50
2019-03-08T10:12:21.357Z,1.27
2019-03-08T10:15:08.084Z,1.50
2019-03-08T10:17:57.309Z,1.20
2019-03-08T10:21:13.854Z,1.67
2019-03-08T10:24:07.580Z,1.70
2019-03-08T10:27:12.307Z,1.80
2019-03-08T10:30:10.093Z,1.70
2019-03-08T10:32:59.312Z,1.40
2019-03-08T10:35:48.493Z,1.73
2019-03-08T10:38:36.463Z,1.20
2019-03-08T10:41:15.477Z,1.53
2019-03-08T10:44:11.176Z,1.60
2019-03-08T10:47:00.673Z,1.87
2019-03-08T10:49:55.034Z,2.33
2019-03-08T10:52:32.619Z,1.53
2019-03-08T10:55:20.671Z,1.40
2019-03-08T10:58:15.906Z,1.70
2019-03-08T11:01:17.789Z,1.20
2019-03-08T11:04:00.827Z,1.43
2019-03-08T11:06:40.362Z,1.60
2019-03-08T11:09:33.018Z,1.40
2019-03-08T11:12:30.954Z,1.40
2019-03-08T11:15:34.859Z,1.50
2019-03-08T11:18:31.684Z,2.00
2019-03-08T11:21:31.238Z,1.80
2019-03-08T11:24:26.665Z,1.40
2019-03-08T11:27:23.917Z,1.80
2019-03-08T11:30:00.370Z,1.30
2019-03-08T11:32:54.494Z,1.50
2019-03-08T11:35:38.441Z,2.00
2019-03-08T11:38:27.505Z,2.10
2019-03-08T11:41:08.840Z,1.60
2019-03-08T11:44:01.315Z,1.70
2019-03-08T11:46:50.495Z,1.33
2019-03-08T11:49:45.646Z,1.70
2019-03-08T11:52:37.978Z,1.70
2019-03-08T11:55:18.911Z,1.33
2019-03-08T11:58:11.179Z,1.67
2019-03-08T12:01:00.508Z,1.80
2019-03-08T12:03:50.525Z,1.43
2019-03-08T12:06:27.582Z,1.77
2019-03-08T12:09:06.079Z,1.50
2019-03-08T12:12:07.829Z,1.93
2019-03-08T12:14:46.246Z,1.50
2019-03-08T12:17:33.135Z,1.63
2019-03-08T12:20:19.871Z,2.70
2019-03-08T12:23:08.060Z,1.70
2019-03-08T12:26:03.481Z,1.63
2019-03-08T12:28:51.428Z,1.47
2019-03-08T12:31:43.790Z,1.57
2019-03-08T12:34:31.582Z,1.67
2019-03-08T12:37:14.025Z,1.53
2019-03-08T12:40:02.604Z,1.83
2019-03-08T12:42:44.986Z,1.73
2019-03-08T12:45:33.331Z,1.80
2019-03-08T12:48:23.629Z,1.63
2019-03-08T12:51:12.074Z,1.30
2019-03-08T12:53:57.254Z,1.50
2019-03-08T12:56:58.548Z,1.93
2019-03-08T12:59:52.229Z,1.50
2019-03-08T13:02:28.177Z,1.57
2019-03-08T13:05:16.019Z,1.60
2019-03-08T13:08:05.392Z,1.70
2019-03-08T13:10:35.718Z,1.63
2019-03-08T13:13:07.722Z,1.33
2019-03-08T13:15:38.331Z,1.73
2019-03-08T13:18:08.611Z,1.20
2019-03-08T13:20:38.896Z,1.20
2019-03-08T13:23:09.706Z,1.40
2019-03-08T13:25:39.976Z,1.53
2019-03-08T13:28:10.394Z,1.10
2019-03-08T13:30:40.621Z,1.13
2019-03-08T13:33:10.925Z,1.40
2019-03-08T13:35:43.452Z,1.53
2019-03-08T13:38:13.864Z,1.57
2019-03-08T13:40:44.074Z,1.63
2019-03-08T13:43:14.292Z,1.30
2019-03-08T13:45:44.826Z,1.53
2019-03-08T13:48:17.881Z,1.40
2019-03-08T13:50:48.140Z,1.30
2019-03-08T13:53:18.812Z,1.40
2019-03-08T13:55:49.040Z,1.10
2019-03-08T13:58:19.390Z,1.40
2019-03-08T14:00:49.840Z,1.57
2019-03-08T14:03:20.088Z,1.80
2019-03-08T14:05:50.375Z,1.57
2019-03-08T14:08:23.104Z,1.40
2019-03-08T14:10:53.342Z,1.77
2019-03-08T14:13:23.852Z,1.73
2019-03-08T14:15:54.858Z,1.47
2019-03-08T14:18:27.380Z,1.67
2019-03-08T14:20:57.658Z,1.50
2019-03-08T14:23:29.584Z,1.63
2019-03-08T14:26:01.095Z,1.40
2019-03-08T14:28:32.130Z,1.80
2019-03-08T14:31:12.669Z,1.47
2019-03-08T14:33:44.388Z,1.77
2019-03-08T14:36:14.820Z,1.70
2019-03-08T14:38:45.138Z,1.50
2019-03-08T14:41:41.464Z,1.70
2019-03-08T14:44:20.325Z,1.77
2019-03-08T14:47:24.986Z,2.00
2019-03-08T14:49:59.292Z,1.93
2019-03-08T14:52:27.341Z,1.80
2019-03-08T14:54:57.677Z,1.60
2019-03-08T14:57:27.935Z,1.70
2019-03-08T14:59:58.407Z,1.87
2019-03-08T15:02:30.776Z,1.53
2019-03-08T15:05:10.674Z,1.70
2019-03-08T15:07:37.262Z,1.67
2019-03-08T15:10:07.613Z,1.80
2019-03-08T15:12:48.399Z,1.80
2019-03-08T15:15:13.671Z,1.70
2019-03-08T15:17:45.847Z,1.70
2019-03-08T15:20:17.699Z,1.93
2019-03-08T15:22:48.277Z,2.20
2019-03-08T15:25:18.567Z,1.97
2019-03-08T15:27:48.910Z,2.30
2019-03-08T15:30:19.461Z,1.93
2019-03-08T15:32:49.806Z,2.13
2019-03-08T15:35:21.495Z,2.50
2019-03-08T15:37:52.184Z,2.37
2019-03-08T15:40:22.635Z,2.73
2019-03-08T15:42:54.962Z,3.17
2019-03-08T15:45:25.229Z,3.93
2019-03-08T15:47:57.592Z,3.50
2019-03-08T15:50:29.356Z,3.43
2019-03-08T15:53:00.725Z,3.60
2019-03-08T15:55:33.848Z,3.57
2019-03-08T15:58:04.341Z,3.80
2019-03-08T16:00:35.146Z,3.70
2019-03-08T16:03:05.916Z,3.43
2019-03-08T16:05:36.307Z,3.93
2019-03-08T16:08:06.604Z,3.90
2019-03-08T16:10:37.464Z,3.60
2019-03-08T16:13:07.791Z,3.63
2019-03-08T16:15:38.370Z,4.20
2019-03-08T16:18:10.159Z,3.93
2019-03-08T16:20:41.004Z,4.50
2019-03-08T16:23:11.268Z,3.97
2019-03-08T16:25:47.604Z,4.00
2019-03-08T16:28:14.910Z,4.90
2019-03-08T16:30:47.433Z,3.93
2019-03-08T16:33:21.199Z,3.97
2019-03-08T16:36:00.865Z,4.70
2019-03-08T16:38:55.790Z,4.73
2019-03-08T16:41:39.442Z,4.87
2019-03-08T16:44:27.460Z,4.67
2019-03-08T16:47:03.643Z,4.63
2019-03-08T16:49:58.677Z,3.93
2019-03-08T16:52:41.364Z,4.37
2019-03-08T16:55:26.442Z,4.13
2019-03-08T16:58:05.690Z,3.80
2019-03-08T17:00:45.712Z,3.93
2019-03-08T17:03:27.032Z,4.20
2019-03-08T17:06:16.398Z,4.10
2019-03-08T17:09:04.623Z,5.10
2019-03-08T17:11:50.082Z,4.60
2019-03-08T17:14:36.039Z,4.50
2019-03-08T17:17:24.328Z,4.90
2019-03-08T17:20:22.910Z,4.53
2019-03-08T17:23:04.944Z,5.37
2019-03-08T17:25:51.819Z,4.87
2019-03-08T17:28:49.954Z,5.77
2019-03-08T17:31:40.022Z,5.57
2019-03-08T17:34:29.219Z,5.50
2019-03-08T17:37:08.894Z,5.20
2019-03-08T17:39:56.720Z,6.07
2019-03-08T17:42:38.079Z,5.87
2019-03-08T17:45:18.226Z,6.03
2019-03-08T17:48:06.426Z,6.93
2019-03-08T17:50:50.249Z,8.30
2019-03-08T17:53:38.249Z,7.10
2019-03-08T17:56:26.510Z,7.20
2019-03-08T17:59:07.325Z,7.70
2019-03-08T18:02:03.662Z,8.00
2019-03-08T18:04:51.880Z,7.37
2019-03-08T18:07:41.365Z,7.87
2019-03-08T18:10:18.533Z,8.53
2019-03-08T18:13:02.170Z,7.30
2019-03-08T18:15:40.644Z,6.87
2019-03-08T18:18:17.664Z,7.27
2019-03-08T18:21:10.499Z,6.93
2019-03-08T18:23:58.632Z,6.90
2019-03-08T18:26:48.127Z,6.70
2019-03-08T18:29:35.539Z,6.60
2019-03-08T18:32:23.096Z,7.30
2019-03-08T18:35:15.233Z,7.50
2019-03-08T18:38:04.615Z,7.47
2019-03-08T18:41:10.143Z,7.03
2019-03-08T18:44:05.715Z,7.17
2019-03-08T18:47:13.144Z,7.13
2019-03-08T18:50:02.917Z,7.77
2019-03-08T18:52:43.589Z,6.80
2019-03-08T18:55:25.837Z,6.40
2019-03-08T18:58:06.329Z,7.73
2019-03-08T19:00:54.342Z,6.23
2019-03-08T19:03:38.395Z,6.83
2019-03-08T19:06:21.585Z,7.10
2019-03-08T19:09:06.907Z,6.53
2019-03-08T19:11:59.928Z,7.93
2019-03-08T19:14:56.499Z,7.40
2019-03-08T19:17:51.986Z,6.43
2019-03-08T19:20:45.545Z,6.93
2019-03-08T19:23:43.060Z,6.10
2019-03-08T19:26:31.087Z,6.97
2019-03-08T19:29:09.255Z,6.70
2019-03-08T19:31:48.820Z,7.17
2019-03-08T19:34:38.110Z,8.00
2019-03-08T19:37:38.608Z,7.80
2019-03-08T19:40:18.282Z,7.73
2019-03-08T19:43:20.226Z,7.23
2019-03-08T19:46:03.567Z,8.37
2019-03-08T19:48:44.827Z,8.13
2019-03-08T19:51:43.769Z,7.70
2019-03-08T19:54:40.017Z,7.67
2019-03-08T19:57:28.971Z,8.53
2019-03-08T20:00:21.504Z,8.93
2019-03-08T20:03:13.680Z,8.23
2019-03-08T20:05:50.509Z,7.93
2019-03-08T20:08:49.172Z,7.90
2019-03-08T20:11:51.360Z,7.63
2019-03-08T20:14:38.418Z,7.83
2019-03-08T20:17:21.032Z,7.13
2019-03-08T20:19:57.885Z,6.90
2019-03-08T20:22:49.972Z,6.73
2019-03-08T20:25:45.866Z,6.07
2019-03-08T20:28:37.832Z,6.50
2019-03-08T20:31:31.613Z,6.83
2019-03-08T20:34:20.860Z,6.43
2019-03-08T20:37:00.568Z,5.63
2019-03-08T20:39:39.185Z,5.57
2019-03-08T20:42:38.008Z,6.33
2019-03-08T20:45:16.637Z,5.77
2019-03-08T20:47:47.214Z,6.80
2019-03-08T20:50:17.534Z,6.43
2019-03-08T20:52:47.921Z,6.20
2019-03-08T20:55:18.482Z,5.77
2019-03-08T20:57:48.827Z,5.70
2019-03-08T21:00:19.675Z,6.30
2019-03-08T21:02:50.227Z,6.47
2019-03-08T21:05:20.564Z,5.57
2019-03-08T21:07:50.771Z,5.43
2019-03-08T21:10:21.150Z,5.77
2019-03-08T21:12:51.567Z,6.17
2019-03-08T21:15:25.301Z,5.47
2019-03-08T21:17:53.988Z,5.43
2019-03-08T21:20:24.298Z,5.40
2019-03-08T21:22:54.604Z,4.83
2019-03-08T21:25:25.606Z,5.33
2019-03-08T21:27:55.836Z,5.53
2019-03-08T21:30:26.093Z,6.93
2019-03-08T21:32:56.527Z,6.43
2019-03-08T21:35:27.120Z,6.33
2019-03-08T21:37:57.401Z,5.50
2019-03-08T21:40:27.666Z,5.70
2019-03-08T21:42:58.555Z,5.80
2019-03-08T21:45:29.068Z,6.63
2019-03-08T21:48:00.876Z,4.97
2019-03-08T21:50:32.686Z,5.30
2019-03-08T21:53:03.087Z,5.73
2019-03-08T21:55:35.801Z,6.20
2019-03-08T21:58:06.139Z,5.43
2019-03-08T22:00:36.598Z,5.17
2019-03-08T22:03:09.074Z,5.57
2019-03-08T22:05:40.102Z,4.97
2019-03-08T22:08:17.205Z,5.03
2019-03-08T22:11:02.969Z,5.30
2019-03-08T22:13:33.290Z,5.13
2019-03-08T22:16:03.519Z,5.47
2019-03-08T22:18:34.063Z,5.97
2019-03-08T22:21:06.526Z,4.90
2019-03-08T22:23:36.809Z,5.40
2019-03-08T22:26:07.551Z,5.43
2019-03-08T22:28:37.871Z,5.70
2019-03-08T22:31:08.395Z,5.73
2019-03-08T22:33:38.670Z,5.80
2019-03-08T22:36:08.923Z,5.23
2019-03-08T22:38:39.265Z,5.93
2019-03-08T22:41:09.596Z,5.20
2019-03-08T22:43:41.285Z,5.60
2019-03-08T22:46:11.594Z,5.27
2019-03-08T22:48:41.864Z,5.70
2019-03-08T22:51:12.148Z,6.83
2019-03-08T22:53:43.393Z,5.70
2019-03-08T22:56:13.604Z,6.10
2019-03-08T22:58:43.890Z,6.03
2019-03-08T23:01:17.058Z,5.67
2019-03-08T23:03:47.559Z,6.43
2019-03-08T23:06:17.994Z,5.47
2019-03-08T23:08:49.169Z,6.03
2019-03-08T23:11:19.950Z,5.23
2019-03-08T23:13:50.287Z,5.73
2019-03-08T23:16:20.481Z,5.20
2019-03-08T23:18:50.729Z,4.97
2019-03-08T23:21:21.006Z,5.53
2019-03-08T23:23:51.221Z,4.93
2019-03-08T23:26:21.885Z,4.83
2019-03-08T23:28:57.515Z,6.43
2019-03-08T23:31:31.546Z,5.30
2019-03-08T23:34:02.913Z,5.33
2019-03-08T23:36:34.655Z,6.40
2019-03-08T23:39:08.620Z,5.30
2019-03-08T23:41:40.464Z,5.03
2019-03-08T23:44:10.698Z,5.40
2019-03-08T23:46:40.970Z,5.33
2019-03-08T23:49:12.804Z,6.00
2019-03-08T23:51:43.108Z,5.73
2019-03-08T23:54:13.274Z,5.93
2019-03-08T23:56:43.481Z,5.77
2019-03-08T23:59:13.812Z,5.33
